ISABELLA DAM (ISB)

Elevation: 2635' · KERN R basin · Operator: US Army Corps of Engineers

Provisional data, subject to change.
Query executed Saturday at 2:04:12   clock

Select a sensor type for a plot of data.
Note: Reservoir Flows are daily averages.

Earlier

Date RES ELE    STORAGE    RES CHG    TOC STO    ABV TOC    OUTFLOW    INFLOW    FNF    PPT INC    PPTINC4    TEMP MN    TEMP MX    WINDLEN    EVP PAN   
 FEET   AF   AF   AF   AF   CFS   CFS   CFS   INCHES   INCHES   DEG F   DEG F   MILES   INCHES  
11/21/2014 2529.63 45040 -- 170000 -- 131 139 139 0.00 0.00 7 15 162 0.09
11/22/2014 2529.58 44922 -- 170000 -- 135 85 85 0.00 0.00 4 18 216 0.10
11/23/2014 2529.61 44993 -- 170000 -125007 134 179 179 0.00 0.01 6 17 133 0.09
11/24/2014 2529.61 44993 0 170000 -125007 134 144 144 0.00 0.00 1 20 103 0.11
11/25/2014 2529.60 44969 -24 170000 -125031 134 131 131 0.00 0.00 1 20 68 0.09
11/26/2014 2529.59 44945 -24 170000 -125055 133 131 131 0.00 0.00 3 27 66 0.11
11/27/2014 2529.58 44922 -23 170000 -125078 133 130 130 0.00 0.00 4 27 47 0.09
11/28/2014 2529.56 44875 -47 170000 -125125 138 126 126 0.00 0.00 3 27 81 0.12
11/29/2014 2529.55 44851 -24 170000 -125149 138 137 137 0.00 0.00 3 23 88 0.12
11/30/2014 2529.53 44804 -47 170000 -125196 138 123 123 0.00 0.00 4 18 93 0.09
12/01/2014 2529.53 44804 0 170000 -125196 137 144 144 0.00 0.00 5 16 127 0.08
12/02/2014 2529.69 45181 377 170000 -124819 136 330 330 2.42 0.00 8 11 234 0.04
12/03/2014 2529.82 45490 309 170000 -124510 154 315 315 0.04 2.42 6 17 72 0.06
12/04/2014 2529.85 45561 71 170000 -124439 187 230 230 0.03 0.04 5 18 92 0.07
12/05/2014 2529.83 45513 -48 170000 -124487 201 183 183 0.00 0.03 6 16 118 0.07
12/06/2014 2529.81 45466 -47 170000 -124534 201 184 184 0.00 0.00 6 20 66 0.08
12/07/2014 2529.77 45371 -95 170000 -124629 201 161 161 0.00 0.00 6 18 134 0.09
12/08/2014 2529.74 45300 -71 170000 -124700 200 172 172 0.00 0.00 5 19 97 0.09
12/09/2014 2529.69 45181 -119 170000 -124819 199 147 147 0.00 0.00 4 19 114 0.09
12/10/2014 2529.65 45087 -94 170000 -124913 199 158 158 0.00 0.00 4 17 82 0.07
12/11/2014 2529.63 45040 -47 170000 -124960 199 182 182 0.01 0.00 6 15 140 0.08
12/12/2014 2529.69 45181 141 170000 -124819 200 277 277 1.32 0.18 5 15 180 0.07
12/13/2014 2529.73 45276 95 170000 -124724 199 252 252 0.07 1.21 3 10 156 0.06
12/14/2014 2529.74 45300 24 170000 -124700 199 216 216 0.00 0.01 1 10 140 0.06
12/15/2014 2529.72 45252 -48 170000 -124748 199 182 -- 0.03 0.00 4 12 236 0.08
12/16/2014 2529.71 45229 -23 170000 -124771 199 191 -- 0.16 0.03 5 10 116 0.05
12/17/2014 2529.71 45229 0 170000 -124771 200 204 -- 0.15 0.10 4 10 132 0.04
12/18/2014 2529.70 45205 -24 170000 -124795 194 188 -- 0.00 0.07 2 16 69 0.07
12/19/2014 -- -- -- 170000 -- 185 -- -- -- 0.00 2 232 -- 4.21
12/20/2014 -- -- -- -- -- -- -- -- -- -- -- -- -- --

Later | Latest

Warning! This data is preliminary and subject to revision.

Show ISB Map | Plot ISB Data | 1 Month ISB Data | Real-Time ISB Data | ISB Info